VIJP

Jaipur International Airport

Airport
ICAO code
VIJP
Summary
ICAO Region
APAC
ICAO Territory
Location

Jaipur, Rajasthan,

Coordinates
26° 49' 41" N , 75° 48' 22" E
KCC
Cfa
Airport WX
Cumulonimbus
Metar
Observation
VIJP 170130Z 15010KT 2500 BR FEW010 BKN020 BKN080 25/23 Q1003 BECMG 3000 BR
Station
Jaipur / Sanganer
Date/Time
2022-08-17 01:30:00
Wind direction
150°
Wind speed
10 kts
Lowest cloud amount
few clouds
Temperature
25°C
Dew point
23°C
Humidity
88%
QNH
1003 hPa
Weather condition
n/a

Description

Jaipur Airport is an international airport located 13 km south of the central business district of Jaipur, the capital of the state of Rajasthan, Indian.

Climatology

Humid “subtropical” climate (Köppen climate classification Cfa) - characterized by hot, humid summers and cool winters. Most precipitation occurs during the monsoon season between late June and late September. Most summer rainfall occurs during thunderstorms. During winter, overnight radiation fog is often a problem.

Airport map

Aerial View

SKYbrary Partners:

Safety knowledge contributed by: